Time;durP1;ratioP1;P1;durP2;ratioP2;P2;SDS_P1;SDS_P2;PMS_P1;PMS_P2;Temp;Humidity;BMP_temperature;BMP_pressure;BME280_temperature;BME280_humidity;BME280_pressure;Samples;Min_cycle;Max_cycle;Signal;HPM_P1;HPM_P2
2023/07/08 00:00:13;;;;;;;4.25;3.15;;;18.90;99.90;;;;;;5070699;28;20240;-71
2023/07/08 00:02:41;;;;;;;3.40;3.05;;;19.00;99.90;;;;;;5068278;28;20750;-72
2023/07/08 00:05:09;;;;;;;3.78;3.13;;;18.90;1.00;;;;;;5065222;28;20230;-70
2023/07/08 00:07:36;;;;;;;3.97;3.22;;;18.90;1.00;;;;;;5061493;28;20220;-69
2023/07/08 00:10:12;;;;;;;4.47;2.97;;;19.00;1.00;;;;;;5070404;28;20257;-69
2023/07/08 00:12:39;;;;;;;4.45;3.20;;;18.90;99.90;;;;;;5068728;28;20747;-69
2023/07/08 00:15:07;;;;;;;4.20;2.58;;;18.80;1.00;;;;;;5069834;28;20233;-75
2023/07/08 00:17:34;;;;;;;3.60;3.08;;;18.90;1.00;;;;;;5068438;28;20230;-74
2023/07/08 00:20:01;;;;;;;3.90;2.75;;;19.00;1.00;;;;;;5058326;28;20241;-68
2023/07/08 00:22:28;;;;;;;3.45;2.92;;;18.90;1.00;;;;;;5069724;28;20655;-69
2023/07/08 00:24:55;;;;;;;3.65;3.35;;;18.90;1.00;;;;;;5069306;28;20245;-69
2023/07/08 00:27:23;;;;;;;2.85;2.65;;;18.90;99.90;;;;;;5069940;28;20241;-69
2023/07/08 00:29:50;;;;;;;4.88;2.90;;;18.90;99.90;;;;;;5070116;28;20244;-69
2023/07/08 00:32:17;;;;;;;2.92;2.50;;;18.80;1.00;;;;;;5070277;28;20269;-74
2023/07/08 00:34:44;;;;;;;4.75;3.28;;;18.90;1.00;;;;;;5068503;28;20252;-75
2023/07/08 00:37:12;;;;;;;4.18;2.97;;;18.80;99.90;;;;;;5070334;28;20269;-73
2023/07/08 00:39:39;;;;;;;3.95;3.30;;;18.90;1.00;;;;;;5070740;28;20263;-73
2023/07/08 00:42:15;;;;;;;4.82;3.53;;;18.90;1.00;;;;;;5071711;28;20206;-71
2023/07/08 00:44:44;;;;;;;3.28;2.97;;;18.90;99.90;;;;;;5072947;28;20233;-72
2023/07/08 00:47:14;;;;;;;7.88;4.43;;;18.80;1.00;;;;;;5073720;28;20242;-73
2023/07/08 00:49:45;;;;;;;6.60;3.53;;;18.90;1.00;;;;;;5073594;28;20308;-74
2023/07/08 00:52:21;;;;;;;6.00;4.20;;;18.90;1.00;;;;;;5073577;28;20261;-71
2023/07/08 00:54:50;;;;;;;5.40;4.13;;;18.90;1.00;;;;;;5072816;28;20614;-74
2023/07/08 00:57:18;;;;;;;3.70;3.03;;;18.90;1.00;;;;;;5062917;28;20210;-72
2023/07/08 00:59:52;;;;;;;3.58;3.25;;;18.90;1.00;;;;;;5073342;28;20222;-73
2023/07/08 01:02:22;;;;;;;5.07;4.55;;;18.90;1.00;;;;;;5073839;28;20237;-74
2023/07/08 01:04:53;;;;;;;8.13;4.47;;;18.90;1.00;;;;;;5071084;28;20245;-74
2023/07/08 01:07:22;;;;;;;5.03;3.72;;;18.90;1.00;;;;;;5067367;28;20214;-70
2023/07/08 01:10:02;;;;;;;6.28;3.78;;;18.90;1.00;;;;;;5073589;28;20202;-74
2023/07/08 01:12:34;;;;;;;4.40;4.00;;;19.10;1.00;;;;;;5068645;28;20729;-74
2023/07/08 01:15:03;;;;;;;6.55;3.88;;;19.00;1.00;;;;;;5070515;28;20237;-71
2023/07/08 01:17:32;;;;;;;5.57;4.22;;;19.00;1.00;;;;;;5072470;28;20202;-73
2023/07/08 01:19:59;;;;;;;3.88;3.50;;;19.00;1.00;;;;;;5073068;28;20206;-73
2023/07/08 01:22:32;;;;;;;5.53;5.03;;;18.90;99.90;;;;;;5072626;28;20241;-73
2023/07/08 01:25:03;;;;;;;5.20;3.78;;;18.90;99.90;;;;;;5072947;28;20217;-73
2023/07/08 01:27:32;;;;;;;6.63;4.55;;;18.90;99.90;;;;;;5071465;28;20202;-69
2023/07/08 01:30:00;;;;;;;6.43;3.83;;;19.00;99.90;;;;;;5068410;28;20242;-70
2023/07/08 01:32:27;;;;;;;4.68;4.07;;;19.10;99.90;;;;;;5072233;28;20683;-72
2023/07/08 01:35:01;;;;;;;4.97;4.15;;;19.10;99.90;;;;;;5072165;28;20245;-69
2023/07/08 01:37:37;;;;;;;4.60;4.15;;;19.10;99.90;;;;;;5072325;28;20232;-69
2023/07/08 01:40:28;;;;;;;4.50;3.97;;;19.20;99.90;;;;;;5071794;28;20229;-71
2023/07/08 01:42:56;;;;;;;6.78;4.05;;;19.20;99.90;;;;;;5072709;28;20234;-69
2023/07/08 01:45:26;;;;;;;4.65;4.18;;;19.20;99.90;;;;;;5065645;28;20234;-68
2023/07/08 01:47:55;;;;;;;7.25;4.53;;;19.20;99.90;;;;;;5072851;28;20244;-69
2023/07/08 01:50:24;;;;;;;5.40;4.82;;;19.20;99.90;;;;;;5072554;28;20743;-69
2023/07/08 01:52:54;;;;;;;6.35;4.30;;;19.30;99.90;;;;;;5071995;28;20713;-68
2023/07/08 01:55:25;;;;;;;9.75;5.00;;;19.30;99.90;;;;;;5072131;28;20234;-69
2023/07/08 01:57:53;;;;;;;6.20;4.63;;;19.30;99.90;;;;;;5072180;28;20214;-73
2023/07/08 02:00:21;;;;;;;6.72;5.55;;;19.10;99.90;;;;;;5069967;28;20202;-69
2023/07/08 02:02:48;;;;;;;6.18;4.38;;;19.10;99.90;;;;;;5067509;28;20241;-68
2023/07/08 02:05:15;;;;;;;6.47;5.65;;;19.10;99.90;;;;;;5066008;28;20245;-70
2023/07/08 02:07:42;;;;;;;6.10;5.15;;;19.30;99.90;;;;;;5064163;28;20686;-69
2023/07/08 02:10:10;;;;;;;8.05;5.60;;;19.30;99.90;;;;;;5071937;28;20233;-74
2023/07/08 02:12:37;;;;;;;5.72;4.90;;;19.30;99.90;;;;;;5063798;28;20665;-70
2023/07/08 02:15:05;;;;;;;5.22;4.22;;;19.30;99.90;;;;;;5064303;28;20241;-69
2023/07/08 02:17:32;;;;;;;7.20;4.28;;;19.30;99.90;;;;;;5060490;28;20245;-69
2023/07/08 02:19:59;;;;;;;10.85;4.47;;;19.30;99.90;;;;;;5061697;28;20239;-71
2023/07/08 02:22:26;;;;;;;8.05;6.05;;;19.40;99.90;;;;;;5058383;28;20683;-74
2023/07/08 02:24:53;;;;;;;5.60;5.00;;;19.50;99.90;;;;;;5070413;28;20681;-69
2023/07/08 02:27:21;;;;;;;5.32;4.82;;;19.40;99.90;;;;;;5072037;28;20241;-69
2023/07/08 02:29:48;;;;;;;6.78;4.15;;;19.50;99.90;;;;;;5068817;28;20211;-69
2023/07/08 02:32:15;;;;;;;6.70;4.50;;;19.40;99.90;;;;;;5060542;28;20254;-68
2023/07/08 02:34:42;;;;;;;7.47;5.00;;;19.60;99.90;;;;;;5070085;28;20245;-68
2023/07/08 02:37:09;;;;;;;6.22;4.15;;;19.70;99.90;;;;;;5061567;28;20206;-69
2023/07/08 02:39:36;;;;;;;8.38;4.93;;;19.70;99.90;;;;;;5071046;28;20241;-69
2023/07/08 02:42:03;;;;;;;6.65;5.15;;;19.70;99.90;;;;;;5071513;28;20263;-70
2023/07/08 02:44:31;;;;;;;7.82;4.90;;;19.70;99.90;;;;;;5069395;28;20202;-68
2023/07/08 02:46:58;;;;;;;8.68;5.25;;;19.70;99.90;;;;;;5067679;28;20235;-68
2023/07/08 02:49:25;;;;;;;5.20;4.18;;;19.70;99.90;;;;;;5060893;28;20238;-76
2023/07/08 02:51:52;;;;;;;9.63;4.55;;;19.70;99.90;;;;;;5070035;28;20246;-69
2023/07/08 02:54:18;;;;;;;7.95;4.55;;;19.70;99.90;;;;;;5071304;28;20736;-69
2023/07/08 02:56:45;;;;;;;6.55;4.70;;;19.70;99.90;;;;;;5071000;28;20316;-69
2023/07/08 02:59:12;;;;;;;5.15;4.65;;;19.80;99.90;;;;;;5069467;28;20674;-69
2023/07/08 03:01:42;;;;;;;7.47;5.20;;;19.90;99.90;;;;;;5070918;28;20624;-76
2023/07/08 03:04:12;;;;;;;7.95;5.00;;;19.90;99.90;;;;;;5069956;28;20237;-75
2023/07/08 03:06:40;;;;;;;6.70;4.97;;;19.90;99.90;;;;;;5070407;28;20206;-74
2023/07/08 03:09:07;;;;;;;6.22;5.45;;;19.90;99.90;;;;;;5070824;28;20233;-77
2023/07/08 03:11:34;;;;;;;6.22;5.07;;;20.10;99.90;;;;;;5070933;28;20238;-78
2023/07/08 03:14:01;;;;;;;6.20;5.05;;;20.10;99.90;;;;;;5068969;28;20273;-69
2023/07/08 03:16:28;;;;;;;6.43;4.85;;;20.10;99.90;;;;;;5070436;28;20257;-70
2023/07/08 03:18:57;;;;;;;6.38;4.90;;;20.20;99.90;;;;;;5070709;28;20264;-77
2023/07/08 03:21:24;;;;;;;5.72;4.40;;;20.10;99.90;;;;;;5064121;28;20253;-70
2023/07/08 03:23:51;;;;;;;7.82;4.53;;;20.10;99.90;;;;;;5063096;28;20682;-70
2023/07/08 03:26:21;;;;;;;5.88;4.88;;;20.10;99.90;;;;;;5070777;28;20654;-73
2023/07/08 03:28:48;;;;;;;5.07;4.47;;;20.10;99.90;;;;;;5068414;28;20260;-71
2023/07/08 03:31:16;;;;;;;6.38;4.10;;;20.20;99.90;;;;;;5070938;28;20206;-78
2023/07/08 03:33:42;;;;;;;8.43;5.30;;;20.10;99.90;;;;;;5070326;28;20758;-76
2023/07/08 03:36:16;;;;;;;7.70;4.47;;;20.10;99.90;;;;;;5055631;28;20235;-69
2023/07/08 03:38:43;;;;;;;4.90;4.22;;;20.20;99.90;;;;;;5070447;28;20292;-69
2023/07/08 03:41:10;;;;;;;4.63;4.20;;;20.20;99.90;;;;;;5069607;28;20240;-77
2023/07/08 03:43:37;;;;;;;7.40;4.32;;;20.20;99.90;;;;;;5070155;28;20242;-78
2023/07/08 03:46:03;;;;;;;5.70;4.45;;;20.20;99.90;;;;;;5070441;28;20310;-70
2023/07/08 03:48:30;;;;;;;6.03;4.50;;;20.20;99.90;;;;;;5070055;28;20229;-77
2023/07/08 03:50:57;;;;;;;6.78;4.30;;;20.20;99.90;;;;;;5067498;28;20248;-74
2023/07/08 03:53:25;;;;;;;6.45;4.63;;;20.20;99.90;;;;;;5069753;28;20265;-69
2023/07/08 03:55:52;;;;;;;8.05;5.13;;;20.30;99.90;;;;;;5070573;28;20237;-70
2023/07/08 03:58:19;;;;;;;6.45;4.15;;;20.30;99.90;;;;;;5070735;28;20253;-70
2023/07/08 04:00:46;;;;;;;8.18;4.05;;;20.20;99.90;;;;;;5065523;28;20233;-77
2023/07/08 04:03:13;;;;;;;8.38;4.75;;;20.30;99.90;;;;;;5069847;28;20206;-70
2023/07/08 04:05:40;;;;;;;6.47;5.03;;;20.30;99.90;;;;;;5060806;28;20238;-77
2023/07/08 04:08:07;;;;;;;7.38;4.57;;;20.30;99.90;;;;;;5070543;28;20237;-70
2023/07/08 04:10:35;;;;;;;4.20;3.75;;;20.40;99.90;;;;;;5069871;28;20237;-69
2023/07/08 04:13:02;;;;;;;6.90;4.40;;;20.40;99.90;;;;;;5070036;28;20603;-69
2023/07/08 04:15:29;;;;;;;7.32;4.63;;;20.40;99.90;;;;;;5072612;28;20686;-70
2023/07/08 04:17:57;;;;;;;4.90;4.00;;;20.50;99.90;;;;;;5074616;28;20241;-77
2023/07/08 04:20:24;;;;;;;6.40;4.20;;;20.50;99.90;;;;;;5071566;28;20206;-74
2023/07/08 04:22:51;;;;;;;9.38;4.65;;;20.50;99.90;;;;;;5062506;28;20237;-76
2023/07/08 04:25:19;;;;;;;7.50;4.63;;;20.50;99.90;;;;;;5063671;28;20674;-78
2023/07/08 04:27:48;;;;;;;5.68;4.78;;;20.50;99.90;;;;;;5070507;28;20245;-78
2023/07/08 04:30:22;;;;;;;5.70;4.97;;;20.60;99.90;;;;;;5073998;28;20673;-75
2023/07/08 04:32:50;;;;;;;5.78;5.18;;;20.60;99.90;;;;;;5071445;28;20252;-72
2023/07/08 04:35:18;;;;;;;5.70;4.10;;;20.50;99.90;;;;;;5065211;28;20246;-77
2023/07/08 04:37:47;;;;;;;6.32;4.57;;;20.50;99.90;;;;;;5068319;28;20252;-70
2023/07/08 04:40:18;;;;;;;5.88;4.50;;;20.50;99.90;;;;;;5073956;28;20210;-70
2023/07/08 04:42:47;;;;;;;7.22;4.40;;;20.60;99.90;;;;;;5073651;28;20206;-78
2023/07/08 04:45:16;;;;;;;11.02;4.50;;;20.60;99.90;;;;;;5074176;28;20298;-74
2023/07/08 04:47:46;;;;;;;7.55;4.53;;;20.70;99.90;;;;;;5073331;28;20213;-71
2023/07/08 04:50:14;;;;;;;12.55;6.03;;;20.80;99.90;;;;;;5071480;28;20210;-69
2023/07/08 04:52:40;;;;;;;9.00;5.28;;;20.80;99.90;;;;;;5073042;28;20748;-70
2023/07/08 04:55:09;;;;;;;7.95;4.85;;;20.80;99.90;;;;;;5072461;28;20238;-69
2023/07/08 04:57:36;;;;;;;7.72;5.38;;;20.90;99.90;;;;;;5073052;28;20212;-78
2023/07/08 05:00:07;;;;;;;5.88;4.55;;;20.90;99.90;;;;;;5073179;28;20206;-70
2023/07/08 05:02:35;;;;;;;7.60;5.30;;;20.90;99.90;;;;;;5066901;28;20199;-79
2023/07/08 05:05:02;;;;;;;6.82;5.65;;;20.80;99.90;;;;;;5068709;28;20650;-71
2023/07/08 05:07:29;;;;;;;10.07;5.03;;;20.80;99.90;;;;;;5072994;28;20245;-70
2023/07/08 05:09:57;;;;;;;7.80;6.20;;;20.80;99.90;;;;;;5073336;28;20674;-82
2023/07/08 05:12:23;;;;;;;5.45;4.88;;;20.70;99.90;;;;;;5072757;28;20280;-69
2023/07/08 05:14:50;;;;;;;6.95;4.78;;;20.70;99.90;;;;;;5073222;28;20262;-70
2023/07/08 05:17:17;;;;;;;7.60;5.72;;;20.70;99.90;;;;;;5071043;28;20576;-78
2023/07/08 05:19:49;;;;;;;6.82;5.32;;;20.70;99.90;;;;;;5072812;28;20213;-76
2023/07/08 05:22:17;;;;;;;6.70;4.65;;;20.70;99.90;;;;;;5057784;28;20671;-70
2023/07/08 05:24:44;;;;;;;7.80;4.78;;;20.80;99.90;;;;;;5072055;28;20213;-78
2023/07/08 05:27:13;;;;;;;10.82;5.85;;;20.80;99.90;;;;;;5071805;28;20249;-77
2023/07/08 05:29:40;;;;;;;7.85;6.00;;;20.90;99.90;;;;;;5072449;28;20210;-80
2023/07/08 05:32:08;;;;;;;7.60;5.07;;;20.90;99.90;;;;;;5070471;28;20685;-77
2023/07/08 05:34:35;;;;;;;7.15;6.30;;;20.90;99.90;;;;;;5069340;28;20713;-78
2023/07/08 05:37:03;;;;;;;6.25;5.18;;;20.90;99.90;;;;;;5067301;28;20233;-81
2023/07/08 05:39:30;;;;;;;8.85;5.57;;;20.90;99.90;;;;;;5072445;28;20210;-81
2023/07/08 05:41:57;;;;;;;9.40;6.82;;;21.00;99.90;;;;;;5072939;28;20229;-80
2023/07/08 05:44:25;;;;;;;8.55;5.38;;;21.00;99.90;;;;;;5072426;28;20249;-70
2023/07/08 05:46:52;;;;;;;7.65;5.40;;;21.00;99.90;;;;;;5069847;28;20255;-70
2023/07/08 05:49:18;;;;;;;10.80;5.47;;;21.10;99.90;;;;;;5057347;28;20239;-79
2023/07/08 05:51:46;;;;;;;9.30;5.38;;;21.20;99.90;;;;;;5070252;28;20252;-77
2023/07/08 05:54:14;;;;;;;6.95;5.93;;;21.30;99.90;;;;;;5072557;28;20681;-77
2023/07/08 05:56:41;;;;;;;6.43;5.18;;;21.30;99.90;;;;;;5072002;28;20242;-81
2023/07/08 05:59:08;;;;;;;10.45;5.68;;;21.40;99.90;;;;;;5072182;28;20241;-69
2023/07/08 06:01:35;;;;;;;10.50;6.50;;;21.40;99.90;;;;;;5071207;28;20241;-69
2023/07/08 06:04:01;;;;;;;9.13;5.78;;;21.50;99.90;;;;;;5063350;28;20244;-75
2023/07/08 06:06:29;;;;;;;5.82;5.32;;;21.60;99.90;;;;;;5072181;28;20206;-69
2023/07/08 06:08:56;;;;;;;7.38;6.13;;;21.70;99.90;;;;;;5067375;28;20233;-71
2023/07/08 06:11:24;;;;;;;7.03;5.80;;;21.80;99.90;;;;;;5070909;28;20241;-78
2023/07/08 06:13:51;;;;;;;9.15;6.30;;;21.80;99.90;;;;;;5067307;28;20259;-78
2023/07/08 06:16:18;;;;;;;7.78;5.93;;;22.00;99.90;;;;;;5062421;28;20681;-84
2023/07/08 06:18:45;;;;;;;7.88;5.78;;;22.10;99.90;;;;;;5069540;28;20283;-91
2023/07/08 06:21:12;;;;;;;7.63;5.97;;;22.20;99.90;;;;;;5056260;28;20210;-88
2023/07/08 06:23:39;;;;;;;13.82;6.30;;;22.30;99.90;;;;;;5062986;28;20210;-79
2023/07/08 06:26:06;;;;;;;10.07;6.57;;;22.50;99.90;;;;;;5072131;28;20263;-84
2023/07/08 06:28:34;;;;;;;8.43;5.65;;;22.60;99.90;;;;;;5071504;28;20206;-78
2023/07/08 06:31:01;;;;;;;9.73;5.85;;;22.80;99.90;;;;;;5069826;28;20206;-79
2023/07/08 06:33:28;;;;;;;7.40;6.50;;;22.90;99.90;;;;;;5057573;28;20689;-78
2023/07/08 06:35:55;;;;;;;9.45;6.25;;;22.90;99.90;;;;;;5063661;28;20256;-89
2023/07/08 06:38:22;;;;;;;6.50;5.72;;;22.80;99.90;;;;;;5071397;28;20242;-88
2023/07/08 06:40:49;;;;;;;8.80;6.82;;;22.70;99.90;;;;;;5072590;28;20252;-77
2023/07/08 06:43:16;;;;;;;7.90;5.65;;;22.50;99.90;;;;;;5071717;28;20209;-77
2023/07/08 06:45:44;;;;;;;9.85;6.40;;;22.50;99.90;;;;;;5071211;28;20216;-84
2023/07/08 06:48:12;;;;;;;11.75;6.18;;;22.70;99.90;;;;;;5071569;28;20202;-79
2023/07/08 06:50:42;;;;;;;7.85;5.38;;;22.80;99.90;;;;;;5064435;28;20234;-78
2023/07/08 06:53:09;;;;;;;8.90;6.10;;;23.10;99.90;;;;;;5058711;28;20207;-86
2023/07/08 06:55:36;;;;;;;9.05;5.30;;;23.20;99.90;;;;;;5071313;28;20261;-79
2023/07/08 06:58:03;;;;;;;6.43;5.05;;;23.30;99.90;;;;;;5071218;28;20249;-82
2023/07/08 07:00:30;;;;;;;15.35;5.88;;;23.40;99.90;;;;;;5070436;28;20217;-77
2023/07/08 07:02:58;;;;;;;6.32;4.90;;;23.50;99.90;;;;;;5070422;28;20234;-87
2023/07/08 07:05:25;;;;;;;7.55;5.00;;;23.70;99.90;;;;;;5071144;28;20303;-79
2023/07/08 07:07:52;;;;;;;7.03;4.80;;;23.70;99.90;;;;;;5069905;28;20682;-87
2023/07/08 07:10:19;;;;;;;5.45;4.78;;;23.90;99.90;;;;;;5069558;28;20263;-86
2023/07/08 07:12:46;;;;;;;9.85;5.72;;;24.10;99.90;;;;;;5070948;28;20300;-81
2023/07/08 07:15:13;;;;;;;6.57;5.70;;;24.30;99.90;;;;;;5065726;28;20269;-76
2023/07/08 07:17:40;;;;;;;7.40;5.13;;;24.40;99.90;;;;;;5061418;28;20264;-89
2023/07/08 07:20:10;;;;;;;6.50;5.18;;;24.40;99.90;;;;;;5070704;28;20271;-78
2023/07/08 07:22:37;;;;;;;4.90;4.10;;;24.50;99.90;;;;;;5061600;28;20229;-83
2023/07/08 07:25:04;;;;;;;8.40;5.75;;;24.80;99.90;;;;;;5065656;28;20378;-88
2023/07/08 07:27:31;;;;;;;10.30;5.43;;;24.80;99.90;;;;;;5070478;28;20731;-76
2023/07/08 07:29:59;;;;;;;6.18;4.80;;;24.90;99.90;;;;;;5066360;28;20651;-81
2023/07/08 07:32:26;;;;;;;6.93;4.95;;;24.90;99.90;;;;;;5068077;28;20230;-81
2023/07/08 07:34:54;;;;;;;9.70;4.70;;;25.30;99.90;;;;;;5065653;28;20718;-83
2023/07/08 07:37:23;;;;;;;10.57;5.70;;;25.30;99.90;;;;;;5061723;28;20665;-80
2023/07/08 07:39:50;;;;;;;6.65;5.32;;;25.40;99.90;;;;;;5066362;28;20209;-83
2023/07/08 07:42:19;;;;;;;8.43;5.55;;;25.40;99.90;;;;;;5062299;28;20279;-79
2023/07/08 07:44:46;;;;;;;5.03;4.20;;;25.10;99.90;;;;;;5070334;28;20202;-82
2023/07/08 07:47:14;;;;;;;7.45;4.25;;;24.90;99.90;;;;;;5069026;28;20283;-81
2023/07/08 07:49:41;;;;;;;10.75;5.10;;;25.50;99.90;;;;;;5069545;28;20206;-80
2023/07/08 07:52:10;;;;;;;6.13;5.47;;;25.50;99.90;;;;;;5067917;28;20229;-82
2023/07/08 07:54:38;;;;;;;6.18;4.30;;;25.70;99.90;;;;;;5069906;28;20226;-80
2023/07/08 07:57:06;;;;;;;9.23;5.22;;;25.70;99.90;;;;;;5066537;28;20229;-83
2023/07/08 07:59:33;;;;;;;7.20;4.50;;;25.90;99.90;;;;;;5069680;28;20682;-77
2023/07/08 08:02:00;;;;;;;5.97;4.63;;;26.20;99.90;;;;;;5059908;28;20238;-76
2023/07/08 08:04:27;;;;;;;8.30;5.07;;;26.50;99.90;;;;;;5050416;28;20293;-90
2023/07/08 08:06:53;;;;;;;8.20;5.00;;;26.60;99.90;;;;;;5051022;28;20635;-80
2023/07/08 08:09:20;;;;;;;7.78;5.07;;;26.20;99.90;;;;;;5059823;28;20246;-73
2023/07/08 08:11:51;;;;;;;8.25;5.22;;;25.90;99.90;;;;;;5063195;28;20596;-80
2023/07/08 08:14:18;;;;;;;10.02;4.70;;;25.70;99.90;;;;;;5060499;28;20258;-81
2023/07/08 08:16:45;;;;;;;6.60;4.63;;;26.10;99.90;;;;;;5063763;28;20202;-75
2023/07/08 08:19:12;;;;;;;5.50;4.65;;;26.10;99.90;;;;;;5065577;28;20233;-78
2023/07/08 08:21:39;;;;;;;8.98;4.93;;;26.20;99.90;;;;;;5061190;28;20242;-74
2023/07/08 08:24:06;;;;;;;12.98;5.93;;;26.20;99.90;;;;;;5061244;28;20638;-76
2023/07/08 08:26:33;;;;;;;7.93;4.82;;;26.40;99.90;;;;;;5063295;28;20241;-73
2023/07/08 08:29:01;;;;;;;6.55;3.92;;;26.10;99.90;;;;;;5059980;28;20237;-85
2023/07/08 08:31:30;;;;;;;6.70;4.25;;;26.20;99.90;;;;;;5068843;28;20242;-76
2023/07/08 08:33:57;;;;;;;6.95;4.63;;;26.10;99.90;;;;;;5068177;28;20691;-84
2023/07/08 08:36:24;;;;;;;6.45;4.50;;;26.50;99.90;;;;;;5067940;28;20303;-76
2023/07/08 08:38:51;;;;;;;7.13;4.88;;;26.50;99.90;;;;;;5069918;28;20256;-79
2023/07/08 08:41:21;;;;;;;7.22;4.78;;;26.60;99.90;;;;;;5069098;28;20761;-78
2023/07/08 08:43:50;;;;;;;8.88;5.40;;;26.60;99.90;;;;;;5069477;28;20202;-75
2023/07/08 08:46:28;;;;;;;5.22;4.65;;;26.60;99.90;;;;;;5069383;28;20210;-76
2023/07/08 08:49:00;;;;;;;10.35;4.55;;;26.60;99.90;;;;;;5061116;28;20245;-75
2023/07/08 08:51:31;;;;;;;6.88;4.90;;;26.70;99.90;;;;;;5053189;28;20242;-74
2023/07/08 08:53:58;;;;;;;5.63;4.80;;;26.90;99.90;;;;;;5056228;28;20203;-75
2023/07/08 08:56:29;;;;;;;5.30;4.50;;;27.10;99.90;;;;;;5054469;28;20242;-74
2023/07/08 08:59:00;;;;;;;5.40;4.47;;;27.50;99.90;;;;;;5059753;28;20232;-70
2023/07/08 09:01:29;;;;;;;6.15;4.63;;;27.20;99.90;;;;;;5058141;28;20713;-74
2023/07/08 09:04:00;;;;;;;5.72;4.20;;;27.40;99.90;;;;;;5060169;28;20233;-74
2023/07/08 09:06:31;;;;;;;7.13;4.55;;;27.90;99.90;;;;;;5064246;28;20250;-73
2023/07/08 09:09:02;;;;;;;6.13;4.30;;;28.30;99.90;;;;;;5058526;28;20315;-78
2023/07/08 09:11:40;;;;;;;6.25;4.63;;;28.60;99.90;;;;;;5059323;28;20210;-78
2023/07/08 09:14:16;;;;;;;7.50;4.88;;;28.60;99.90;;;;;;5053639;28;20213;-79
2023/07/08 09:16:51;;;;;;;7.47;4.57;;;30.30;99.90;;;;;;5052617;28;20211;-74
2023/07/08 09:19:24;;;;;;;6.85;4.10;;;29.00;99.90;;;;;;5059506;28;20225;-72
2023/07/08 09:22:00;;;;;;;9.52;4.45;;;28.80;99.90;;;;;;5065630;28;20205;-75
2023/07/08 09:24:33;;;;;;;7.70;4.82;;;28.80;99.90;;;;;;5070701;28;20233;-73
2023/07/08 09:27:02;;;;;;;8.43;5.05;;;28.80;99.90;;;;;;5064203;28;20682;-73
2023/07/08 09:29:29;;;;;;;5.82;4.28;;;29.00;99.90;;;;;;5054987;28;20256;-78
2023/07/08 09:31:59;;;;;;;6.55;4.88;;;29.40;99.90;;;;;;5064942;28;20248;-71
2023/07/08 09:34:38;;;;;;;5.95;4.90;;;30.50;99.90;;;;;;5056373;28;20233;-71
2023/07/08 09:37:25;;;;;;;7.22;5.35;;;34.40;99.90;;;;;;5058541;28;20201;-70
2023/07/08 09:39:52;;;;;;;5.15;4.60;;;37.60;99.90;;;;;;5070184;28;20263;-72
2023/07/08 09:42:21;;;;;;;13.00;4.60;;;34.70;99.90;;;;;;5056896;28;20237;-71
2023/07/08 09:44:48;;;;;;;5.30;4.78;;;37.80;99.90;;;;;;5066550;28;20659;-77
2023/07/08 09:47:24;;;;;;;7.25;4.55;;;40.40;99.90;;;;;;5072687;28;20578;-77
2023/07/08 09:49:53;;;;;;;7.78;4.72;;;41.50;99.90;;;;;;5058721;28;20242;-78
2023/07/08 09:52:20;;;;;;;8.05;4.15;;;40.40;99.90;;;;;;5066264;28;20209;-70
2023/07/08 09:54:47;;;;;;;7.40;4.68;;;41.70;99.90;;;;;;5052446;28;20272;-81
2023/07/08 09:57:25;;;;;;;5.25;4.60;;;42.00;99.90;;;;;;5055531;28;20662;-69
2023/07/08 09:59:56;;;;;;;4.40;3.72;;;42.10;99.90;;;;;;5055404;28;20217;-79
2023/07/08 10:02:31;;;;;;;4.75;4.35;;;40.00;99.90;;;;;;5055449;28;20260;-77
2023/07/08 10:05:00;;;;;;;8.85;4.10;;;41.80;99.90;;;;;;5052202;28;20252;-72
2023/07/08 10:07:30;;;;;;;8.02;4.80;;;42.00;99.90;;;;;;5050483;28;20206;-76
2023/07/08 10:09:59;;;;;;;7.72;4.88;;;43.00;99.90;;;;;;5052108;28;20622;-80
2023/07/08 10:12:27;;;;;;;6.68;3.50;;;43.10;99.90;;;;;;5054146;28;20640;-80
2023/07/08 10:14:59;;;;;;;6.28;4.63;;;44.40;99.90;;;;;;5059898;28;20284;-80
2023/07/08 10:17:29;;;;;;;5.30;3.90;;;40.70;99.90;;;;;;5050766;28;20214;-69
2023/07/08 10:19:57;;;;;;;7.82;4.20;;;39.60;99.90;;;;;;5051620;28;20264;-79
2023/07/08 10:22:36;;;;;;;6.32;4.90;;;37.20;99.90;;;;;;5054789;28;20240;-77
2023/07/08 10:25:12;;;;;;;7.35;4.75;;;40.00;99.90;;;;;;5072078;28;20205;-68
2023/07/08 10:27:46;;;;;;;4.82;4.35;;;38.30;99.90;;;;;;5069488;28;20237;-79
2023/07/08 10:30:22;;;;;;;4.10;3.70;;;39.60;99.90;;;;;;5071989;28;20426;-68
2023/07/08 10:33:20;;;;;;;6.03;4.50;;;37.60;99.90;;;;;;5070966;28;20244;-80
2023/07/08 10:35:53;;;;;;;5.57;4.60;;;34.20;99.90;;;;;;5071580;28;20760;-68
2023/07/08 10:38:37;;;;;;;5.78;4.60;;;33.30;99.90;;;;;;5071739;28;20233;-67
2023/07/08 10:41:14;;;;;;;5.70;4.53;;;32.10;99.90;;;;;;5071529;28;20241;-81
2023/07/08 10:43:55;;;;;;;7.78;4.70;;;31.40;99.90;;;;;;5070057;28;20723;-77
2023/07/08 10:46:29;;;;;;;6.47;4.82;;;31.30;99.90;;;;;;5071377;28;20237;-68
2023/07/08 10:49:33;;;;;;;5.25;4.75;;;31.30;99.90;;;;;;5071504;28;20236;-67
2023/07/08 10:52:08;;;;;;;9.55;5.65;;;31.20;99.90;;;;;;5070105;28;20672;-70
2023/07/08 10:55:01;;;;;;;7.85;4.43;;;31.00;99.90;;;;;;5070188;28;20237;-66
2023/07/08 10:57:47;;;;;;;8.75;5.10;;;30.80;99.90;;;;;;5059724;28;20241;-69
2023/07/08 11:00:24;;;;;;;8.25;5.00;;;30.70;99.90;;;;;;5067784;28;20735;-70
2023/07/08 11:03:15;;;;;;;9.15;5.88;;;30.60;99.90;;;;;;5071258;28;20208;-77
2023/07/08 11:05:45;;;;;;;7.43;4.68;;;31.10;99.90;;;;;;5069775;28;20244;-71
2023/07/08 11:08:20;;;;;;;6.45;4.82;;;30.90;99.90;;;;;;5071008;28;20708;-71
2023/07/08 11:10:51;;;;;;;5.55;4.53;;;30.70;99.90;;;;;;5070903;28;20239;-72
2023/07/08 11:13:20;;;;;;;8.13;5.18;;;31.10;99.90;;;;;;5071088;28;20252;-71
2023/07/08 11:15:53;;;;;;;9.27;4.50;;;31.10;99.90;;;;;;5069717;28;20221;-74
2023/07/08 11:18:26;;;;;;;5.85;4.32;;;30.90;99.90;;;;;;5071133;28;20306;-76
2023/07/08 11:20:58;;;;;;;8.45;4.88;;;30.90;99.90;;;;;;5068884;28;20233;-70
2023/07/08 11:23:32;;;;;;;5.38;4.15;;;31.00;99.90;;;;;;5059033;28;20237;-68
2023/07/08 11:26:08;;;;;;;6.78;4.45;;;30.80;99.90;;;;;;5069638;28;20209;-75
2023/07/08 11:28:35;;;;;;;7.05;4.47;;;31.00;99.90;;;;;;5070220;28;20241;-81
2023/07/08 11:31:03;;;;;;;9.13;5.07;;;31.10;99.90;;;;;;5070516;28;20232;-82
2023/07/08 11:33:32;;;;;;;8.30;5.38;;;31.30;99.90;;;;;;5070311;28;20253;-84
2023/07/08 11:36:03;;;;;;;7.25;5.55;;;31.40;99.90;;;;;;5070144;28;20683;-81
2023/07/08 11:38:33;;;;;;;6.15;4.93;;;31.40;99.90;;;;;;5069012;28;20206;-70
2023/07/08 11:41:02;;;;;;;5.90;5.25;;;31.40;99.90;;;;;;5070745;28;20201;-83
2023/07/08 11:43:36;;;;;;;10.10;5.45;;;31.50;99.90;;;;;;5070116;28;20237;-84
2023/07/08 11:46:06;;;;;;;7.88;4.68;;;31.50;99.90;;;;;;5070012;28;20294;-83
2023/07/08 11:48:41;;;;;;;10.15;5.70;;;31.40;99.90;;;;;;5069504;28;20669;-71
2023/07/08 11:51:10;;;;;;;6.35;4.60;;;31.50;99.90;;;;;;5070564;28;20236;-83
2023/07/08 11:53:39;;;;;;;9.00;4.13;;;31.50;99.90;;;;;;5070060;28;20233;-84
2023/07/08 11:56:21;;;;;;;7.85;4.90;;;31.60;99.90;;;;;;5069261;28;20264;-70
2023/07/08 11:59:08;;;;;;;8.25;4.90;;;31.60;99.90;;;;;;5070705;28;20240;-80
2023/07/08 12:01:40;;;;;;;6.47;4.50;;;31.40;99.90;;;;;;5068047;28;20241;-74
2023/07/08 12:04:29;;;;;;;7.07;3.83;;;31.20;99.90;;;;;;5069880;28;20233;-82
2023/07/08 12:07:17;;;;;;;10.32;4.78;;;31.40;99.90;;;;;;5056037;28;20209;-82
2023/07/08 12:09:50;;;;;;;6.28;3.95;;;31.50;99.90;;;;;;5070106;28;20261;-81
2023/07/08 12:12:24;;;;;;;7.22;4.60;;;31.50;99.90;;;;;;5070528;28;20251;-81
2023/07/08 12:14:53;;;;;;;8.38;4.60;;;31.50;99.90;;;;;;5070338;28;20634;-70
2023/07/08 12:17:21;;;;;;;4.47;4.07;;;31.70;99.90;;;;;;5068710;28;20271;-77
2023/07/08 12:19:50;;;;;;;6.90;5.03;;;31.60;99.90;;;;;;5070867;28;20292;-70
2023/07/08 12:22:18;;;;;;;7.55;4.93;;;31.70;99.90;;;;;;5057330;28;20202;-82
2023/07/08 12:24:45;;;;;;;5.20;4.68;;;31.90;99.90;;;;;;5069635;28;20205;-79
2023/07/08 12:27:12;;;;;;;6.70;4.85;;;31.80;99.90;;;;;;5058980;28;20236;-83
2023/07/08 12:29:39;;;;;;;5.40;4.03;;;31.90;99.90;;;;;;5070153;28;20237;-67
2023/07/08 12:32:09;;;;;;;8.43;4.82;;;31.90;99.90;;;;;;5069488;28;20656;-71
2023/07/08 12:34:36;;;;;;;9.75;5.05;;;31.80;99.90;;;;;;5068591;28;20711;-83
2023/07/08 12:37:04;;;;;;;5.18;4.35;;;31.80;99.90;;;;;;5056704;28;20728;-71
2023/07/08 12:39:34;;;;;;;5.38;4.05;;;31.90;99.90;;;;;;5065122;28;20237;-70
2023/07/08 12:42:04;;;;;;;6.88;4.85;;;32.10;99.90;;;;;;5073893;28;20207;-69
2023/07/08 12:44:31;;;;;;;8.20;5.07;;;32.30;99.90;;;;;;5073732;28;20206;-69
2023/07/08 12:47:01;;;;;;;6.43;4.25;;;32.40;99.90;;;;;;5071706;28;20358;-78
2023/07/08 12:49:29;;;;;;;8.65;5.05;;;32.30;99.90;;;;;;5073407;28;20251;-68
2023/07/08 12:51:56;;;;;;;5.75;4.05;;;32.20;99.90;;;;;;5073602;28;20232;-70
2023/07/08 12:54:23;;;;;;;6.18;3.97;;;32.00;99.90;;;;;;5073230;28;20206;-68
2023/07/08 12:56:53;;;;;;;5.75;5.10;;;32.00;99.90;;;;;;5072548;28;20640;-71
2023/07/08 12:59:23;;;;;;;7.13;5.40;;;32.00;99.90;;;;;;5071182;28;20288;-81